sensor_id;sensor_type;location;lat;lon;timestamp;P1;durP1;ratioP1;P2;durP2;ratioP2
12631;SDS011;6381;45.748;12.106;2023-04-06T00:00:36;17.93;;;13.30;;
12631;SDS011;6381;45.748;12.106;2023-04-06T00:03:05;15.57;;;12.27;;
12631;SDS011;6381;45.748;12.106;2023-04-06T00:05:34;15.33;;;12.77;;
12631;SDS011;6381;45.748;12.106;2023-04-06T00:08:03;14.97;;;12.63;;
12631;SDS011;6381;45.748;12.106;2023-04-06T00:10:32;13.97;;;12.30;;
12631;SDS011;6381;45.748;12.106;2023-04-06T00:13:02;13.93;;;12.43;;
12631;SDS011;6381;45.748;12.106;2023-04-06T00:15:31;14.00;;;12.60;;
12631;SDS011;6381;45.748;12.106;2023-04-06T00:18:00;13.43;;;12.10;;
12631;SDS011;6381;45.748;12.106;2023-04-06T00:20:29;14.47;;;12.47;;
12631;SDS011;6381;45.748;12.106;2023-04-06T00:22:58;13.17;;;11.73;;
12631;SDS011;6381;45.748;12.106;2023-04-06T00:25:27;14.20;;;12.03;;
12631;SDS011;6381;45.748;12.106;2023-04-06T00:27:56;20.63;;;16.40;;
12631;SDS011;6381;45.748;12.106;2023-04-06T00:30:26;34.83;;;22.73;;
12631;SDS011;6381;45.748;12.106;2023-04-06T00:32:55;24.60;;;17.97;;
12631;SDS011;6381;45.748;12.106;2023-04-06T00:35:24;18.50;;;15.30;;
12631;SDS011;6381;45.748;12.106;2023-04-06T00:37:53;15.87;;;14.17;;
12631;SDS011;6381;45.748;12.106;2023-04-06T00:40:22;25.57;;;18.43;;
12631;SDS011;6381;45.748;12.106;2023-04-06T00:42:51;32.03;;;20.60;;
12631;SDS011;6381;45.748;12.106;2023-04-06T00:45:20;49.17;;;31.33;;
12631;SDS011;6381;45.748;12.106;2023-04-06T00:47:50;42.60;;;27.70;;
12631;SDS011;6381;45.748;12.106;2023-04-06T00:50:19;18.00;;;14.60;;
12631;SDS011;6381;45.748;12.106;2023-04-06T00:52:48;15.03;;;11.17;;
12631;SDS011;6381;45.748;12.106;2023-04-06T00:55:23;14.20;;;12.00;;
12631;SDS011;6381;45.748;12.106;2023-04-06T00:57:52;13.23;;;11.47;;
12631;SDS011;6381;45.748;12.106;2023-04-06T01:00:21;13.70;;;11.43;;
12631;SDS011;6381;45.748;12.106;2023-04-06T01:02:57;14.33;;;11.57;;
12631;SDS011;6381;45.748;12.106;2023-04-06T01:05:33;12.77;;;11.47;;
12631;SDS011;6381;45.748;12.106;2023-04-06T01:08:14;12.57;;;11.17;;
12631;SDS011;6381;45.748;12.106;2023-04-06T01:10:44;11.97;;;10.60;;
12631;SDS011;6381;45.748;12.106;2023-04-06T01:13:33;13.40;;;11.00;;
12631;SDS011;6381;45.748;12.106;2023-04-06T01:16:05;12.13;;;10.80;;
12631;SDS011;6381;45.748;12.106;2023-04-06T01:19:04;12.47;;;10.50;;
12631;SDS011;6381;45.748;12.106;2023-04-06T01:21:39;13.70;;;10.70;;
12631;SDS011;6381;45.748;12.106;2023-04-06T01:24:29;12.87;;;10.43;;
12631;SDS011;6381;45.748;12.106;2023-04-06T01:27:16;11.67;;;10.40;;
12631;SDS011;6381;45.748;12.106;2023-04-06T01:30:04;11.80;;;10.43;;
12631;SDS011;6381;45.748;12.106;2023-04-06T01:32:57;11.90;;;10.67;;
12631;SDS011;6381;45.748;12.106;2023-04-06T01:35:45;12.20;;;10.80;;
12631;SDS011;6381;45.748;12.106;2023-04-06T01:38:17;11.37;;;10.17;;
12631;SDS011;6381;45.748;12.106;2023-04-06T01:40:49;11.43;;;10.23;;
12631;SDS011;6381;45.748;12.106;2023-04-06T01:43:21;12.30;;;9.57;;
12631;SDS011;6381;45.748;12.106;2023-04-06T01:46:15;10.27;;;9.17;;
12631;SDS011;6381;45.748;12.106;2023-04-06T01:48:44;12.27;;;10.83;;
12631;SDS011;6381;45.748;12.106;2023-04-06T01:51:33;11.90;;;10.77;;
12631;SDS011;6381;45.748;12.106;2023-04-06T01:54:05;11.77;;;10.57;;
12631;SDS011;6381;45.748;12.106;2023-04-06T01:56:53;11.20;;;10.03;;
12631;SDS011;6381;45.748;12.106;2023-04-06T01:59:30;11.17;;;9.97;;
12631;SDS011;6381;45.748;12.106;2023-04-06T02:02:05;10.63;;;9.57;;
12631;SDS011;6381;45.748;12.106;2023-04-06T02:04:35;10.17;;;9.13;;
12631;SDS011;6381;45.748;12.106;2023-04-06T02:07:11;11.80;;;9.03;;
12631;SDS011;6381;45.748;12.106;2023-04-06T02:09:41;10.37;;;9.30;;
12631;SDS011;6381;45.748;12.106;2023-04-06T02:12:19;10.23;;;9.23;;
12631;SDS011;6381;45.748;12.106;2023-04-06T02:14:48;12.40;;;9.97;;
12631;SDS011;6381;45.748;12.106;2023-04-06T02:17:17;13.50;;;9.90;;
12631;SDS011;6381;45.748;12.106;2023-04-06T02:19:47;10.67;;;9.30;;
12631;SDS011;6381;45.748;12.106;2023-04-06T02:22:15;9.63;;;8.67;;
12631;SDS011;6381;45.748;12.106;2023-04-06T02:24:44;10.47;;;9.27;;
12631;SDS011;6381;45.748;12.106;2023-04-06T02:27:14;10.80;;;9.77;;
12631;SDS011;6381;45.748;12.106;2023-04-06T02:29:47;10.47;;;9.30;;
12631;SDS011;6381;45.748;12.106;2023-04-06T02:32:19;13.23;;;9.30;;
12631;SDS011;6381;45.748;12.106;2023-04-06T02:34:48;10.50;;;9.43;;
12631;SDS011;6381;45.748;12.106;2023-04-06T02:37:19;10.10;;;9.10;;
12631;SDS011;6381;45.748;12.106;2023-04-06T02:39:48;10.80;;;8.90;;
12631;SDS011;6381;45.748;12.106;2023-04-06T02:42:17;9.90;;;8.90;;
12631;SDS011;6381;45.748;12.106;2023-04-06T02:44:51;11.00;;;8.67;;
12631;SDS011;6381;45.748;12.106;2023-04-06T02:47:24;9.23;;;8.30;;
12631;SDS011;6381;45.748;12.106;2023-04-06T02:49:53;12.40;;;8.77;;
12631;SDS011;6381;45.748;12.106;2023-04-06T02:52:22;7.77;;;7.07;;
12631;SDS011;6381;45.748;12.106;2023-04-06T02:54:51;10.20;;;7.90;;
12631;SDS011;6381;45.748;12.106;2023-04-06T02:57:25;9.50;;;7.77;;
12631;SDS011;6381;45.748;12.106;2023-04-06T02:59:56;9.13;;;7.23;;
12631;SDS011;6381;45.748;12.106;2023-04-06T03:02:32;7.83;;;7.03;;
12631;SDS011;6381;45.748;12.106;2023-04-06T03:05:07;8.80;;;7.50;;
12631;SDS011;6381;45.748;12.106;2023-04-06T03:07:40;9.83;;;7.77;;
12631;SDS011;6381;45.748;12.106;2023-04-06T03:10:16;10.00;;;7.60;;
12631;SDS011;6381;45.748;12.106;2023-04-06T03:12:47;9.00;;;6.67;;
12631;SDS011;6381;45.748;12.106;2023-04-06T03:15:21;7.50;;;6.73;;
12631;SDS011;6381;45.748;12.106;2023-04-06T03:17:56;6.77;;;5.97;;
12631;SDS011;6381;45.748;12.106;2023-04-06T03:20:39;7.60;;;6.60;;
12631;SDS011;6381;45.748;12.106;2023-04-06T03:23:09;7.47;;;6.67;;
12631;SDS011;6381;45.748;12.106;2023-04-06T03:25:41;9.63;;;6.63;;
12631;SDS011;6381;45.748;12.106;2023-04-06T03:28:14;8.77;;;6.50;;
12631;SDS011;6381;45.748;12.106;2023-04-06T03:30:57;9.87;;;6.50;;
12631;SDS011;6381;45.748;12.106;2023-04-06T03:33:43;8.83;;;6.10;;
12631;SDS011;6381;45.748;12.106;2023-04-06T03:36:29;8.23;;;6.13;;
12631;SDS011;6381;45.748;12.106;2023-04-06T03:38:58;6.53;;;5.70;;
12631;SDS011;6381;45.748;12.106;2023-04-06T03:41:31;7.50;;;5.63;;
12631;SDS011;6381;45.748;12.106;2023-04-06T03:44:18;7.97;;;6.17;;
12631;SDS011;6381;45.748;12.106;2023-04-06T03:46:49;8.23;;;6.07;;
12631;SDS011;6381;45.748;12.106;2023-04-06T03:49:21;7.83;;;5.87;;
12631;SDS011;6381;45.748;12.106;2023-04-06T03:51:52;8.77;;;6.00;;
12631;SDS011;6381;45.748;12.106;2023-04-06T03:54:21;9.07;;;6.37;;
12631;SDS011;6381;45.748;12.106;2023-04-06T03:56:50;6.87;;;5.60;;
12631;SDS011;6381;45.748;12.106;2023-04-06T03:59:19;6.33;;;5.67;;
12631;SDS011;6381;45.748;12.106;2023-04-06T04:01:53;8.00;;;6.47;;
12631;SDS011;6381;45.748;12.106;2023-04-06T04:04:22;6.90;;;6.03;;
12631;SDS011;6381;45.748;12.106;2023-04-06T04:06:51;9.50;;;5.60;;
12631;SDS011;6381;45.748;12.106;2023-04-06T04:09:20;6.97;;;6.07;;
12631;SDS011;6381;45.748;12.106;2023-04-06T04:11:50;6.57;;;5.80;;
12631;SDS011;6381;45.748;12.106;2023-04-06T04:14:20;8.37;;;6.20;;
12631;SDS011;6381;45.748;12.106;2023-04-06T04:16:49;8.23;;;6.07;;
12631;SDS011;6381;45.748;12.106;2023-04-06T04:19:19;7.37;;;6.03;;
12631;SDS011;6381;45.748;12.106;2023-04-06T04:21:48;7.83;;;5.80;;
12631;SDS011;6381;45.748;12.106;2023-04-06T04:24:25;8.20;;;6.40;;
12631;SDS011;6381;45.748;12.106;2023-04-06T04:26:54;7.63;;;6.40;;
12631;SDS011;6381;45.748;12.106;2023-04-06T04:29:23;9.00;;;6.43;;
12631;SDS011;6381;45.748;12.106;2023-04-06T04:31:53;6.80;;;6.10;;
12631;SDS011;6381;45.748;12.106;2023-04-06T04:34:24;6.17;;;5.57;;
12631;SDS011;6381;45.748;12.106;2023-04-06T04:36:53;8.33;;;5.90;;
12631;SDS011;6381;45.748;12.106;2023-04-06T04:39:33;7.30;;;6.17;;
12631;SDS011;6381;45.748;12.106;2023-04-06T04:42:05;9.23;;;6.00;;
12631;SDS011;6381;45.748;12.106;2023-04-06T04:44:38;8.37;;;6.70;;
12631;SDS011;6381;45.748;12.106;2023-04-06T04:47:08;6.70;;;6.00;;
12631;SDS011;6381;45.748;12.106;2023-04-06T04:49:44;7.50;;;6.10;;
12631;SDS011;6381;45.748;12.106;2023-04-06T04:52:19;7.20;;;5.83;;
12631;SDS011;6381;45.748;12.106;2023-04-06T04:55:09;10.20;;;6.50;;
12631;SDS011;6381;45.748;12.106;2023-04-06T04:57:38;12.00;;;6.90;;
12631;SDS011;6381;45.748;12.106;2023-04-06T05:00:07;8.93;;;6.60;;
12631;SDS011;6381;45.748;12.106;2023-04-06T05:02:41;10.80;;;6.80;;
12631;SDS011;6381;45.748;12.106;2023-04-06T05:05:27;9.90;;;6.90;;
12631;SDS011;6381;45.748;12.106;2023-04-06T05:07:56;7.83;;;6.47;;
12631;SDS011;6381;45.748;12.106;2023-04-06T05:10:36;9.97;;;6.47;;
12631;SDS011;6381;45.748;12.106;2023-04-06T05:13:05;7.00;;;6.30;;
12631;SDS011;6381;45.748;12.106;2023-04-06T05:15:34;8.30;;;6.13;;
12631;SDS011;6381;45.748;12.106;2023-04-06T05:18:13;8.87;;;6.37;;
12631;SDS011;6381;45.748;12.106;2023-04-06T05:20:43;8.47;;;6.10;;
12631;SDS011;6381;45.748;12.106;2023-04-06T05:23:12;7.17;;;6.47;;
12631;SDS011;6381;45.748;12.106;2023-04-06T05:25:42;8.10;;;6.47;;
12631;SDS011;6381;45.748;12.106;2023-04-06T05:28:17;10.13;;;6.90;;
12631;SDS011;6381;45.748;12.106;2023-04-06T05:30:46;6.97;;;6.27;;
12631;SDS011;6381;45.748;12.106;2023-04-06T05:33:16;10.77;;;6.90;;
12631;SDS011;6381;45.748;12.106;2023-04-06T05:36:01;8.67;;;6.30;;
12631;SDS011;6381;45.748;12.106;2023-04-06T05:38:33;7.57;;;6.23;;
12631;SDS011;6381;45.748;12.106;2023-04-06T05:41:12;8.90;;;6.17;;
12631;SDS011;6381;45.748;12.106;2023-04-06T05:43:41;9.67;;;6.37;;
12631;SDS011;6381;45.748;12.106;2023-04-06T05:46:11;9.63;;;6.30;;
12631;SDS011;6381;45.748;12.106;2023-04-06T05:48:40;8.63;;;6.27;;
12631;SDS011;6381;45.748;12.106;2023-04-06T05:51:12;7.13;;;5.77;;
12631;SDS011;6381;45.748;12.106;2023-04-06T05:53:46;10.03;;;6.23;;
12631;SDS011;6381;45.748;12.106;2023-04-06T05:56:15;8.30;;;6.23;;
12631;SDS011;6381;45.748;12.106;2023-04-06T05:58:45;8.93;;;6.87;;
12631;SDS011;6381;45.748;12.106;2023-04-06T06:01:20;11.23;;;7.57;;
12631;SDS011;6381;45.748;12.106;2023-04-06T06:03:49;13.47;;;7.77;;
12631;SDS011;6381;45.748;12.106;2023-04-06T06:06:20;10.40;;;7.80;;
12631;SDS011;6381;45.748;12.106;2023-04-06T06:09:24;9.27;;;6.97;;
12631;SDS011;6381;45.748;12.106;2023-04-06T06:12:05;10.17;;;6.43;;
12631;SDS011;6381;45.748;12.106;2023-04-06T06:14:34;13.27;;;6.23;;
12631;SDS011;6381;45.748;12.106;2023-04-06T06:17:03;9.43;;;6.47;;
12631;SDS011;6381;45.748;12.106;2023-04-06T06:19:33;9.00;;;7.03;;
12631;SDS011;6381;45.748;12.106;2023-04-06T06:22:06;6.50;;;5.90;;
12631;SDS011;6381;45.748;12.106;2023-04-06T06:24:39;8.57;;;6.37;;
12631;SDS011;6381;45.748;12.106;2023-04-06T06:27:09;8.80;;;6.90;;
12631;SDS011;6381;45.748;12.106;2023-04-06T06:29:38;7.00;;;6.27;;
12631;SDS011;6381;45.748;12.106;2023-04-06T06:32:07;11.03;;;6.20;;
12631;SDS011;6381;45.748;12.106;2023-04-06T06:34:38;9.33;;;7.00;;
12631;SDS011;6381;45.748;12.106;2023-04-06T06:37:10;7.53;;;6.60;;
12631;SDS011;6381;45.748;12.106;2023-04-06T06:39:39;8.43;;;6.40;;
12631;SDS011;6381;45.748;12.106;2023-04-06T06:42:08;10.97;;;6.57;;
12631;SDS011;6381;45.748;12.106;2023-04-06T06:44:50;10.70;;;6.23;;
12631;SDS011;6381;45.748;12.106;2023-04-06T06:47:19;8.30;;;6.03;;
12631;SDS011;6381;45.748;12.106;2023-04-06T06:49:49;19.33;;;6.80;;
12631;SDS011;6381;45.748;12.106;2023-04-06T06:52:19;10.97;;;6.60;;
12631;SDS011;6381;45.748;12.106;2023-04-06T06:54:49;10.80;;;7.30;;
12631;SDS011;6381;45.748;12.106;2023-04-06T06:57:21;12.10;;;7.17;;
12631;SDS011;6381;45.748;12.106;2023-04-06T06:59:50;9.47;;;6.90;;
12631;SDS011;6381;45.748;12.106;2023-04-06T07:02:20;11.73;;;7.07;;
12631;SDS011;6381;45.748;12.106;2023-04-06T07:04:49;16.07;;;8.60;;
12631;SDS011;6381;45.748;12.106;2023-04-06T07:07:20;13.43;;;7.47;;
12631;SDS011;6381;45.748;12.106;2023-04-06T07:09:48;9.07;;;7.03;;
12631;SDS011;6381;45.748;12.106;2023-04-06T07:12:17;8.90;;;6.77;;
12631;SDS011;6381;45.748;12.106;2023-04-06T07:14:46;12.50;;;7.67;;
12631;SDS011;6381;45.748;12.106;2023-04-06T07:17:15;15.10;;;7.47;;
12631;SDS011;6381;45.748;12.106;2023-04-06T07:19:44;14.77;;;7.40;;
12631;SDS011;6381;45.748;12.106;2023-04-06T07:22:13;10.00;;;7.93;;
12631;SDS011;6381;45.748;12.106;2023-04-06T07:24:43;10.63;;;7.17;;
12631;SDS011;6381;45.748;12.106;2023-04-06T07:27:13;9.67;;;6.97;;
12631;SDS011;6381;45.748;12.106;2023-04-06T07:29:43;8.20;;;6.97;;
12631;SDS011;6381;45.748;12.106;2023-04-06T07:32:12;9.67;;;7.27;;
12631;SDS011;6381;45.748;12.106;2023-04-06T07:34:41;10.17;;;7.30;;
12631;SDS011;6381;45.748;12.106;2023-04-06T07:37:11;8.43;;;6.67;;
12631;SDS011;6381;45.748;12.106;2023-04-06T07:39:42;8.87;;;6.90;;
12631;SDS011;6381;45.748;12.106;2023-04-06T07:42:12;9.87;;;6.77;;
12631;SDS011;6381;45.748;12.106;2023-04-06T07:44:42;7.50;;;6.70;;
12631;SDS011;6381;45.748;12.106;2023-04-06T07:47:11;9.67;;;6.90;;
12631;SDS011;6381;45.748;12.106;2023-04-06T07:49:40;8.33;;;6.83;;
12631;SDS011;6381;45.748;12.106;2023-04-06T07:52:10;11.43;;;7.33;;
12631;SDS011;6381;45.748;12.106;2023-04-06T07:54:40;8.50;;;7.17;;
12631;SDS011;6381;45.748;12.106;2023-04-06T07:57:10;8.93;;;7.27;;
12631;SDS011;6381;45.748;12.106;2023-04-06T07:59:39;10.70;;;8.20;;
12631;SDS011;6381;45.748;12.106;2023-04-06T08:02:08;8.63;;;7.13;;
12631;SDS011;6381;45.748;12.106;2023-04-06T08:04:37;10.87;;;7.10;;
12631;SDS011;6381;45.748;12.106;2023-04-06T08:07:06;8.20;;;6.50;;
12631;SDS011;6381;45.748;12.106;2023-04-06T08:09:35;8.30;;;6.90;;
12631;SDS011;6381;45.748;12.106;2023-04-06T08:12:04;10.97;;;6.90;;
12631;SDS011;6381;45.748;12.106;2023-04-06T08:14:35;6.90;;;6.27;;
12631;SDS011;6381;45.748;12.106;2023-04-06T08:17:04;8.17;;;6.80;;
12631;SDS011;6381;45.748;12.106;2023-04-06T08:19:33;7.53;;;6.80;;
12631;SDS011;6381;45.748;12.106;2023-04-06T08:22:02;9.63;;;6.90;;
12631;SDS011;6381;45.748;12.106;2023-04-06T08:24:31;7.37;;;6.20;;
12631;SDS011;6381;45.748;12.106;2023-04-06T08:27:00;7.30;;;6.60;;
12631;SDS011;6381;45.748;12.106;2023-04-06T08:29:29;7.27;;;6.57;;
12631;SDS011;6381;45.748;12.106;2023-04-06T08:32:00;7.40;;;6.70;;
12631;SDS011;6381;45.748;12.106;2023-04-06T08:34:31;9.00;;;6.90;;
12631;SDS011;6381;45.748;12.106;2023-04-06T08:37:01;9.00;;;7.30;;
12631;SDS011;6381;45.748;12.106;2023-04-06T08:39:30;7.50;;;6.70;;
12631;SDS011;6381;45.748;12.106;2023-04-06T08:42:00;10.40;;;6.87;;
12631;SDS011;6381;45.748;12.106;2023-04-06T08:44:30;8.77;;;6.93;;
12631;SDS011;6381;45.748;12.106;2023-04-06T08:47:01;9.10;;;7.07;;
12631;SDS011;6381;45.748;12.106;2023-04-06T08:49:34;8.57;;;6.93;;
12631;SDS011;6381;45.748;12.106;2023-04-06T08:52:06;12.13;;;7.83;;
12631;SDS011;6381;45.748;12.106;2023-04-06T08:54:36;8.27;;;7.00;;
12631;SDS011;6381;45.748;12.106;2023-04-06T08:57:05;8.23;;;7.10;;
12631;SDS011;6381;45.748;12.106;2023-04-06T08:59:35;10.17;;;7.07;;
12631;SDS011;6381;45.748;12.106;2023-04-06T09:02:06;9.40;;;7.40;;
12631;SDS011;6381;45.748;12.106;2023-04-06T09:04:40;10.33;;;7.80;;
12631;SDS011;6381;45.748;12.106;2023-04-06T09:07:09;8.83;;;7.07;;
12631;SDS011;6381;45.748;12.106;2023-04-06T09:09:38;7.93;;;7.13;;
12631;SDS011;6381;45.748;12.106;2023-04-06T09:12:21;7.87;;;6.87;;
12631;SDS011;6381;45.748;12.106;2023-04-06T09:14:51;10.10;;;6.93;;
12631;SDS011;6381;45.748;12.106;2023-04-06T09:17:22;8.20;;;7.07;;
12631;SDS011;6381;45.748;12.106;2023-04-06T09:19:51;8.60;;;7.37;;
12631;SDS011;6381;45.748;12.106;2023-04-06T09:22:20;8.00;;;7.20;;
12631;SDS011;6381;45.748;12.106;2023-04-06T09:24:52;8.73;;;7.23;;
12631;SDS011;6381;45.748;12.106;2023-04-06T09:27:29;9.97;;;7.80;;
12631;SDS011;6381;45.748;12.106;2023-04-06T09:30:03;8.83;;;7.60;;
12631;SDS011;6381;45.748;12.106;2023-04-06T09:32:45;9.73;;;7.33;;
12631;SDS011;6381;45.748;12.106;2023-04-06T09:35:15;10.90;;;7.87;;
12631;SDS011;6381;45.748;12.106;2023-04-06T09:37:46;11.13;;;8.03;;
12631;SDS011;6381;45.748;12.106;2023-04-06T09:40:16;11.03;;;7.47;;
12631;SDS011;6381;45.748;12.106;2023-04-06T09:42:46;8.73;;;7.80;;
12631;SDS011;6381;45.748;12.106;2023-04-06T09:45:16;8.93;;;7.77;;
12631;SDS011;6381;45.748;12.106;2023-04-06T09:47:47;12.27;;;7.87;;
12631;SDS011;6381;45.748;12.106;2023-04-06T09:50:20;8.80;;;7.90;;
12631;SDS011;6381;45.748;12.106;2023-04-06T09:52:50;8.43;;;7.60;;
12631;SDS011;6381;45.748;12.106;2023-04-06T09:55:23;8.93;;;7.50;;
12631;SDS011;6381;45.748;12.106;2023-04-06T09:58:01;9.90;;;8.07;;
12631;SDS011;6381;45.748;12.106;2023-04-06T10:00:35;10.33;;;8.47;;
12631;SDS011;6381;45.748;12.106;2023-04-06T10:03:12;10.70;;;8.43;;
12631;SDS011;6381;45.748;12.106;2023-04-06T10:05:46;9.07;;;7.90;;
12631;SDS011;6381;45.748;12.106;2023-04-06T10:08:15;10.80;;;8.03;;
12631;SDS011;6381;45.748;12.106;2023-04-06T10:10:45;9.23;;;8.10;;
12631;SDS011;6381;45.748;12.106;2023-04-06T10:13:15;9.43;;;8.43;;
12631;SDS011;6381;45.748;12.106;2023-04-06T10:15:44;10.17;;;8.53;;
12631;SDS011;6381;45.748;12.106;2023-04-06T10:18:14;9.93;;;7.83;;
12631;SDS011;6381;45.748;12.106;2023-04-06T10:20:48;13.47;;;8.70;;
12631;SDS011;6381;45.748;12.106;2023-04-06T10:23:22;10.67;;;8.87;;
12631;SDS011;6381;45.748;12.106;2023-04-06T10:25:58;10.77;;;8.13;;
12631;SDS011;6381;45.748;12.106;2023-04-06T10:28:30;10.00;;;9.00;;
12631;SDS011;6381;45.748;12.106;2023-04-06T10:31:02;10.33;;;9.30;;
12631;SDS011;6381;45.748;12.106;2023-04-06T10:33:35;11.27;;;8.93;;
12631;SDS011;6381;45.748;12.106;2023-04-06T10:36:10;10.17;;;8.77;;
12631;SDS011;6381;45.748;12.106;2023-04-06T10:38:40;10.70;;;8.20;;
12631;SDS011;6381;45.748;12.106;2023-04-06T10:41:10;10.03;;;8.50;;
12631;SDS011;6381;45.748;12.106;2023-04-06T10:43:40;10.23;;;8.60;;
12631;SDS011;6381;45.748;12.106;2023-04-06T10:46:10;10.93;;;8.73;;
12631;SDS011;6381;45.748;12.106;2023-04-06T10:48:41;11.63;;;8.87;;
12631;SDS011;6381;45.748;12.106;2023-04-06T10:51:13;10.73;;;9.23;;
12631;SDS011;6381;45.748;12.106;2023-04-06T10:53:44;9.70;;;8.70;;
12631;SDS011;6381;45.748;12.106;2023-04-06T10:56:15;10.93;;;9.13;;
12631;SDS011;6381;45.748;12.106;2023-04-06T10:58:45;12.77;;;8.67;;
12631;SDS011;6381;45.748;12.106;2023-04-06T11:01:15;11.07;;;8.93;;
12631;SDS011;6381;45.748;12.106;2023-04-06T11:03:46;10.30;;;8.70;;
12631;SDS011;6381;45.748;12.106;2023-04-06T11:06:18;10.17;;;9.17;;
12631;SDS011;6381;45.748;12.106;2023-04-06T11:08:48;9.90;;;8.90;;
12631;SDS011;6381;45.748;12.106;2023-04-06T11:11:18;9.90;;;8.53;;
12631;SDS011;6381;45.748;12.106;2023-04-06T11:13:49;11.40;;;8.97;;
12631;SDS011;6381;45.748;12.106;2023-04-06T11:16:19;10.83;;;9.63;;
12631;SDS011;6381;45.748;12.106;2023-04-06T11:18:51;12.90;;;9.53;;
12631;SDS011;6381;45.748;12.106;2023-04-06T11:21:32;13.63;;;10.30;;
12631;SDS011;6381;45.748;12.106;2023-04-06T11:24:06;13.20;;;9.97;;
12631;SDS011;6381;45.748;12.106;2023-04-06T11:26:37;13.37;;;9.97;;
12631;SDS011;6381;45.748;12.106;2023-04-06T11:29:07;11.43;;;10.23;;
12631;SDS011;6381;45.748;12.106;2023-04-06T11:31:39;12.57;;;9.50;;
12631;SDS011;6381;45.748;12.106;2023-04-06T11:34:11;10.60;;;9.20;;
12631;SDS011;6381;45.748;12.106;2023-04-06T11:36:42;9.17;;;8.27;;
12631;SDS011;6381;45.748;12.106;2023-04-06T11:39:12;11.37;;;9.10;;
12631;SDS011;6381;45.748;12.106;2023-04-06T11:41:47;10.83;;;9.27;;
12631;SDS011;6381;45.748;12.106;2023-04-06T11:44:26;15.90;;;9.70;;
12631;SDS011;6381;45.748;12.106;2023-04-06T11:46:57;11.43;;;10.23;;
12631;SDS011;6381;45.748;12.106;2023-04-06T11:49:28;10.80;;;9.70;;
12631;SDS011;6381;45.748;12.106;2023-04-06T11:51:57;11.53;;;9.67;;
12631;SDS011;6381;45.748;12.106;2023-04-06T11:54:32;10.70;;;8.97;;
12631;SDS011;6381;45.748;12.106;2023-04-06T11:57:01;13.30;;;9.60;;
12631;SDS011;6381;45.748;12.106;2023-04-06T11:59:31;12.63;;;10.20;;
12631;SDS011;6381;45.748;12.106;2023-04-06T12:02:00;13.30;;;10.17;;
12631;SDS011;6381;45.748;12.106;2023-04-06T12:04:31;11.17;;;9.87;;
12631;SDS011;6381;45.748;12.106;2023-04-06T12:07:01;12.67;;;11.00;;
12631;SDS011;6381;45.748;12.106;2023-04-06T12:09:30;12.60;;;11.30;;
12631;SDS011;6381;45.748;12.106;2023-04-06T12:12:01;12.77;;;10.07;;
12631;SDS011;6381;45.748;12.106;2023-04-06T12:14:30;11.80;;;9.83;;
12631;SDS011;6381;45.748;12.106;2023-04-06T12:16:59;15.27;;;11.03;;
12631;SDS011;6381;45.748;12.106;2023-04-06T12:19:28;12.30;;;10.10;;
12631;SDS011;6381;45.748;12.106;2023-04-06T12:22:00;12.83;;;10.50;;
12631;SDS011;6381;45.748;12.106;2023-04-06T12:24:29;12.40;;;9.73;;
12631;SDS011;6381;45.748;12.106;2023-04-06T12:26:57;11.57;;;9.80;;
12631;SDS011;6381;45.748;12.106;2023-04-06T12:29:35;12.33;;;10.40;;
12631;SDS011;6381;45.748;12.106;2023-04-06T12:32:05;15.07;;;11.17;;
12631;SDS011;6381;45.748;12.106;2023-04-06T12:34:35;13.47;;;10.57;;
12631;SDS011;6381;45.748;12.106;2023-04-06T12:37:04;14.13;;;11.10;;
12631;SDS011;6381;45.748;12.106;2023-04-06T12:39:33;14.27;;;10.87;;
12631;SDS011;6381;45.748;12.106;2023-04-06T12:42:01;13.87;;;11.23;;
12631;SDS011;6381;45.748;12.106;2023-04-06T12:44:31;11.87;;;10.67;;
12631;SDS011;6381;45.748;12.106;2023-04-06T12:47:00;13.37;;;10.63;;
12631;SDS011;6381;45.748;12.106;2023-04-06T12:49:29;13.67;;;11.43;;
12631;SDS011;6381;45.748;12.106;2023-04-06T12:51:59;12.67;;;11.30;;
12631;SDS011;6381;45.748;12.106;2023-04-06T12:54:29;13.07;;;11.13;;
12631;SDS011;6381;45.748;12.106;2023-04-06T12:56:58;12.93;;;11.13;;
12631;SDS011;6381;45.748;12.106;2023-04-06T12:59:27;13.43;;;12.00;;
12631;SDS011;6381;45.748;12.106;2023-04-06T13:02:01;20.40;;;12.87;;
12631;SDS011;6381;45.748;12.106;2023-04-06T13:04:32;14.73;;;12.20;;
12631;SDS011;6381;45.748;12.106;2023-04-06T13:07:02;13.13;;;11.73;;
12631;SDS011;6381;45.748;12.106;2023-04-06T13:09:31;12.87;;;11.30;;
12631;SDS011;6381;45.748;12.106;2023-04-06T13:12:00;13.80;;;12.33;;
12631;SDS011;6381;45.748;12.106;2023-04-06T13:14:29;13.70;;;12.27;;
12631;SDS011;6381;45.748;12.106;2023-04-06T13:16:59;15.77;;;12.20;;
12631;SDS011;6381;45.748;12.106;2023-04-06T13:19:28;18.03;;;12.57;;
12631;SDS011;6381;45.748;12.106;2023-04-06T13:21:57;14.07;;;11.57;;
12631;SDS011;6381;45.748;12.106;2023-04-06T13:24:28;12.93;;;11.47;;
12631;SDS011;6381;45.748;12.106;2023-04-06T13:26:57;13.93;;;12.53;;
12631;SDS011;6381;45.748;12.106;2023-04-06T13:29:27;14.13;;;12.73;;
12631;SDS011;6381;45.748;12.106;2023-04-06T13:31:56;16.60;;;13.30;;
12631;SDS011;6381;45.748;12.106;2023-04-06T13:34:25;15.63;;;13.20;;
12631;SDS011;6381;45.748;12.106;2023-04-06T13:36:54;13.63;;;12.23;;
12631;SDS011;6381;45.748;12.106;2023-04-06T13:39:23;14.52;;;12.00;;
12631;SDS011;6381;45.748;12.106;2023-04-06T13:41:54;15.13;;;12.75;;
12631;SDS011;6381;45.748;12.106;2023-04-06T13:44:24;14.55;;;12.27;;
12631;SDS011;6381;45.748;12.106;2023-04-06T13:46:53;14.55;;;12.40;;
12631;SDS011;6381;45.748;12.106;2023-04-06T13:49:22;14.23;;;12.83;;
12631;SDS011;6381;45.748;12.106;2023-04-06T13:51:51;14.45;;;11.95;;
12631;SDS011;6381;45.748;12.106;2023-04-06T13:54:20;13.82;;;11.90;;
12631;SDS011;6381;45.748;12.106;2023-04-06T13:56:48;15.60;;;14.00;;
12631;SDS011;6381;45.748;12.106;2023-04-06T13:59:18;15.73;;;13.70;;
12631;SDS011;6381;45.748;12.106;2023-04-06T14:01:48;15.30;;;13.20;;
12631;SDS011;6381;45.748;12.106;2023-04-06T14:04:17;14.60;;;12.75;;
12631;SDS011;6381;45.748;12.106;2023-04-06T14:06:45;16.23;;;13.10;;
12631;SDS011;6381;45.748;12.106;2023-04-06T14:09:14;16.65;;;12.80;;
12631;SDS011;6381;45.748;12.106;2023-04-06T14:11:43;15.80;;;12.38;;
12631;SDS011;6381;45.748;12.106;2023-04-06T14:14:12;13.70;;;12.30;;
12631;SDS011;6381;45.748;12.106;2023-04-06T14:16:42;17.03;;;12.97;;
12631;SDS011;6381;45.748;12.106;2023-04-06T14:19:12;15.95;;;13.35;;
12631;SDS011;6381;45.748;12.106;2023-04-06T14:21:42;15.50;;;13.57;;
12631;SDS011;6381;45.748;12.106;2023-04-06T14:24:11;14.80;;;13.18;;
12631;SDS011;6381;45.748;12.106;2023-04-06T14:26:40;15.98;;;13.15;;
12631;SDS011;6381;45.748;12.106;2023-04-06T14:29:09;13.65;;;12.25;;
12631;SDS011;6381;45.748;12.106;2023-04-06T14:31:38;17.40;;;13.13;;
12631;SDS011;6381;45.748;12.106;2023-04-06T14:34:08;13.80;;;12.30;;
12631;SDS011;6381;45.748;12.106;2023-04-06T14:36:37;16.77;;;13.30;;
12631;SDS011;6381;45.748;12.106;2023-04-06T14:39:06;16.17;;;13.45;;
12631;SDS011;6381;45.748;12.106;2023-04-06T14:41:36;13.17;;;11.87;;
12631;SDS011;6381;45.748;12.106;2023-04-06T14:44:05;13.47;;;11.77;;
12631;SDS011;6381;45.748;12.106;2023-04-06T14:46:34;13.43;;;11.88;;
12631;SDS011;6381;45.748;12.106;2023-04-06T14:49:02;16.50;;;12.10;;
12631;SDS011;6381;45.748;12.106;2023-04-06T14:51:33;16.27;;;11.70;;
12631;SDS011;6381;45.748;12.106;2023-04-06T14:54:02;14.38;;;12.77;;
12631;SDS011;6381;45.748;12.106;2023-04-06T14:56:31;13.93;;;12.40;;
12631;SDS011;6381;45.748;12.106;2023-04-06T14:59:00;17.80;;;12.93;;
12631;SDS011;6381;45.748;12.106;2023-04-06T15:01:33;15.00;;;13.07;;